Time;durP1;ratioP1;P1;durP2;ratioP2;P2;SDS_P1;SDS_P2;PMS_P1;PMS_P2;Temp;Humidity;BMP_temperature;BMP_pressure;BME280_temperature;BME280_humidity;BME280_pressure;Samples;Min_cycle;Max_cycle;Signal;HPM_P1;HPM_P2
2023/09/07 00:00:15;;;;;;;6.90;2.67;;;17.10;96.30;;;;;;5029498;28;20398;-71
2023/09/07 00:02:40;;;;;;;8.25;2.70;;;17.00;99.90;;;;;;5027578;28;20452;-71
2023/09/07 00:05:07;;;;;;;8.07;3.10;;;16.90;99.90;;;;;;5026637;28;20504;-71
2023/09/07 00:07:33;;;;;;;7.18;2.72;;;16.90;99.90;;;;;;5028468;28;20472;-71
2023/09/07 00:09:59;;;;;;;9.43;3.05;;;16.90;99.90;;;;;;5027773;28;20419;-71
2023/09/07 00:12:25;;;;;;;6.93;2.60;;;16.90;99.90;;;;;;5028764;28;20413;-72
2023/09/07 00:14:50;;;;;;;8.70;3.20;;;16.90;99.90;;;;;;5028292;28;20471;-71
2023/09/07 00:17:16;;;;;;;7.60;3.10;;;16.90;99.90;;;;;;5027497;28;20929;-72
2023/09/07 00:19:41;;;;;;;7.20;2.60;;;16.90;99.90;;;;;;5029559;28;20387;-71
2023/09/07 00:22:07;;;;;;;7.03;2.80;;;16.90;99.90;;;;;;5011840;28;20415;-72
2023/09/07 00:24:32;;;;;;;8.60;3.10;;;16.90;99.90;;;;;;5029311;28;20889;-71
2023/09/07 00:26:58;;;;;;;6.87;2.80;;;16.90;99.90;;;;;;5029115;28;20406;-72
2023/09/07 00:29:24;;;;;;;9.70;2.85;;;17.00;99.90;;;;;;5029966;28;20445;-72
2023/09/07 00:31:49;;;;;;;10.10;3.60;;;16.90;99.90;;;;;;5027859;28;20889;-71
2023/09/07 00:34:15;;;;;;;9.60;3.87;;;16.90;99.90;;;;;;5012926;28;20404;-71
2023/09/07 00:36:40;;;;;;;8.67;3.40;;;16.90;99.90;;;;;;5012088;28;20382;-71
2023/09/07 00:39:06;;;;;;;7.90;3.37;;;16.70;99.90;;;;;;5028561;28;20448;-71
2023/09/07 00:41:31;;;;;;;8.37;3.30;;;16.80;99.90;;;;;;5028771;28;20445;-73
2023/09/07 00:43:57;;;;;;;8.37;3.23;;;16.80;99.90;;;;;;5029163;28;20418;-73
2023/09/07 00:46:22;;;;;;;9.90;3.50;;;16.80;99.90;;;;;;5029100;28;20399;-73
2023/09/07 00:48:49;;;;;;;9.60;3.70;;;16.80;99.90;;;;;;5030637;28;20425;-73
2023/09/07 00:51:15;;;;;;;8.35;3.55;;;16.70;99.90;;;;;;5033183;28;20401;-73
2023/09/07 00:53:41;;;;;;;13.60;4.50;;;16.70;99.90;;;;;;5033114;28;20470;-73
2023/09/07 00:56:07;;;;;;;10.82;3.65;;;16.70;99.90;;;;;;5029719;28;20488;-73
2023/09/07 00:58:33;;;;;;;9.68;4.13;;;16.70;99.90;;;;;;5032644;28;20387;-73
2023/09/07 01:00:59;;;;;;;8.90;3.97;;;16.70;99.90;;;;;;5032173;28;20386;-73
2023/09/07 01:03:25;;;;;;;7.10;3.20;;;16.70;99.90;;;;;;5032684;28;20456;-73
2023/09/07 01:06:18;;;;;;;9.07;3.63;;;16.70;99.90;;;;;;5031580;28;20893;-73
2023/09/07 01:08:48;;;;;;;10.60;4.00;;;16.70;99.90;;;;;;5019382;28;20424;-73
2023/09/07 01:11:17;;;;;;;10.88;4.10;;;16.60;99.90;;;;;;5032125;28;20533;-73
2023/09/07 01:13:43;;;;;;;8.20;3.50;;;16.60;99.90;;;;;;5031396;28;20427;-73
2023/09/07 01:16:10;;;;;;;11.82;4.30;;;16.50;99.90;;;;;;5031902;28;20447;-73
2023/09/07 01:18:37;;;;;;;10.30;3.83;;;16.60;99.90;;;;;;5021296;28;20411;-73
2023/09/07 01:21:05;;;;;;;8.25;3.90;;;16.60;99.90;;;;;;5031686;28;20410;-73
2023/09/07 01:23:31;;;;;;;9.90;4.13;;;16.60;99.90;;;;;;5031497;28;20502;-73
2023/09/07 01:25:57;;;;;;;8.57;3.65;;;16.50;99.90;;;;;;5027044;28;20456;-73
2023/09/07 01:28:23;;;;;;;8.40;3.78;;;16.50;99.90;;;;;;5019853;28;20525;-73
2023/09/07 01:30:50;;;;;;;11.00;3.97;;;16.60;99.90;;;;;;5031871;28;20422;-73
2023/09/07 01:33:16;;;;;;;9.40;3.50;;;16.50;99.90;;;;;;5031127;28;20407;-72
2023/09/07 01:35:41;;;;;;;8.90;3.60;;;16.40;99.90;;;;;;5030403;28;20430;-73
2023/09/07 01:38:07;;;;;;;11.13;3.50;;;16.30;1.00;;;;;;5030708;28;20422;-73
2023/09/07 01:40:32;;;;;;;7.87;3.30;;;16.30;1.00;;;;;;5031093;28;20410;-73
2023/09/07 01:42:58;;;;;;;7.43;3.00;;;16.20;1.00;;;;;;5034980;28;20406;-73
2023/09/07 01:45:23;;;;;;;8.07;3.23;;;16.20;1.00;;;;;;5031272;28;20415;-73
2023/09/07 01:47:49;;;;;;;10.23;3.17;;;16.10;1.00;;;;;;5030423;28;20493;-73
2023/09/07 01:50:15;;;;;;;8.90;3.38;;;16.10;1.00;;;;;;5031097;28;20494;-73
2023/09/07 01:52:41;;;;;;;8.53;3.67;;;16.00;1.00;;;;;;5030721;28;20432;-73
2023/09/07 01:55:07;;;;;;;9.20;3.40;;;16.00;1.00;;;;;;5029785;28;20476;-73
2023/09/07 01:57:32;;;;;;;7.17;3.47;;;16.00;1.00;;;;;;5031616;28;20398;-73
2023/09/07 01:59:58;;;;;;;7.83;3.20;;;16.10;1.00;;;;;;5029372;28;20403;-73
2023/09/07 02:02:23;;;;;;;10.40;3.70;;;16.10;1.00;;;;;;5032025;28;20391;-73
2023/09/07 02:04:49;;;;;;;8.25;3.22;;;16.00;1.00;;;;;;5030302;28;20558;-73
2023/09/07 02:07:14;;;;;;;8.30;3.40;;;16.00;1.00;;;;;;5030885;28;20443;-73
2023/09/07 02:09:41;;;;;;;10.57;3.60;;;16.00;1.00;;;;;;5030466;28;20464;-73
2023/09/07 02:12:07;;;;;;;7.95;3.20;;;16.00;1.00;;;;;;5030581;28;20403;-73
2023/09/07 02:14:32;;;;;;;11.07;3.87;;;16.00;1.00;;;;;;5012267;28;20428;-72
2023/09/07 02:16:57;;;;;;;9.07;3.50;;;16.00;1.00;;;;;;5025623;28;20403;-72
2023/09/07 02:19:23;;;;;;;7.70;3.30;;;15.90;1.00;;;;;;5023371;28;20407;-72
2023/09/07 02:21:51;;;;;;;7.93;3.20;;;15.90;1.00;;;;;;5030499;28;20415;-73
2023/09/07 02:24:16;;;;;;;8.90;3.65;;;15.90;1.00;;;;;;5029588;28;20410;-73
2023/09/07 02:26:45;;;;;;;8.47;3.67;;;15.90;1.00;;;;;;5030128;28;20474;-73
2023/09/07 02:29:13;;;;;;;8.90;3.72;;;16.00;1.00;;;;;;5027631;28;20423;-73
2023/09/07 02:31:41;;;;;;;8.40;3.15;;;16.00;1.00;;;;;;5028211;28;20807;-73
2023/09/07 02:34:07;;;;;;;9.50;3.40;;;15.90;1.00;;;;;;5030507;28;20393;-73
2023/09/07 02:36:34;;;;;;;7.47;3.20;;;15.80;1.00;;;;;;5027053;28;20410;-73
2023/09/07 02:39:01;;;;;;;7.93;3.42;;;15.70;1.00;;;;;;5029313;28;20454;-73
2023/09/07 02:41:26;;;;;;;7.68;3.10;;;15.60;1.00;;;;;;5011507;28;20844;-73
2023/09/07 02:43:52;;;;;;;9.48;3.28;;;15.60;1.00;;;;;;5029973;28;20490;-73
2023/09/07 02:46:17;;;;;;;8.25;3.53;;;15.50;1.00;;;;;;5029443;28;20958;-73
2023/09/07 02:48:43;;;;;;;7.63;3.37;;;15.50;1.00;;;;;;5030121;28;20447;-74
2023/09/07 02:51:09;;;;;;;11.40;3.30;;;15.40;1.00;;;;;;5028827;28;20414;-73
2023/09/07 02:53:34;;;;;;;7.85;3.10;;;15.30;1.00;;;;;;5029454;28;20890;-73
2023/09/07 02:56:03;;;;;;;10.93;3.50;;;15.30;1.00;;;;;;5028996;28;20414;-73
2023/09/07 02:58:29;;;;;;;10.30;3.30;;;15.30;1.00;;;;;;5029231;28;20402;-73
2023/09/07 03:00:55;;;;;;;8.25;3.25;;;15.30;1.00;;;;;;5029595;28;20445;-74
2023/09/07 03:03:20;;;;;;;7.57;3.50;;;15.40;1.00;;;;;;5030754;28;20730;-73
2023/09/07 03:05:46;;;;;;;8.90;3.97;;;15.40;1.00;;;;;;5028746;28;20441;-73
2023/09/07 03:08:12;;;;;;;11.10;3.53;;;15.40;1.00;;;;;;5028732;28;20441;-73
2023/09/07 03:10:39;;;;;;;7.72;3.30;;;15.50;1.00;;;;;;5029029;28;20410;-73
2023/09/07 03:13:05;;;;;;;7.30;2.90;;;15.50;1.00;;;;;;5028597;28;20437;-73
2023/09/07 03:15:31;;;;;;;9.07;3.50;;;15.60;1.00;;;;;;5025577;28;20419;-73
2023/09/07 03:17:57;;;;;;;7.73;3.10;;;15.60;1.00;;;;;;5027614;28;20836;-73
2023/09/07 03:20:22;;;;;;;10.50;3.53;;;15.50;1.00;;;;;;5028507;28;20406;-73
2023/09/07 03:22:48;;;;;;;7.95;3.03;;;15.60;1.00;;;;;;5029562;28;20395;-72
2023/09/07 03:25:14;;;;;;;12.30;3.70;;;15.50;1.00;;;;;;5027152;28;20414;-73
2023/09/07 03:27:40;;;;;;;9.55;3.75;;;15.50;1.00;;;;;;5029014;28;20936;-73
2023/09/07 03:30:07;;;;;;;9.77;3.37;;;15.40;1.00;;;;;;5028349;28;20427;-73
2023/09/07 03:32:33;;;;;;;7.70;3.20;;;15.40;1.00;;;;;;5029227;28;20881;-73
2023/09/07 03:35:00;;;;;;;9.07;3.70;;;15.30;1.00;;;;;;5029076;28;20484;-73
2023/09/07 03:37:26;;;;;;;7.40;2.97;;;15.20;1.00;;;;;;5027830;28;20407;-74
2023/09/07 03:39:52;;;;;;;9.55;3.70;;;15.10;1.00;;;;;;5026892;28;20430;-74
2023/09/07 03:42:17;;;;;;;8.80;3.50;;;14.90;1.00;;;;;;5028766;28;20402;-74
2023/09/07 03:44:43;;;;;;;12.82;3.75;;;14.80;1.00;;;;;;5028450;28;20410;-74
2023/09/07 03:47:10;;;;;;;9.83;4.10;;;14.80;1.00;;;;;;5029355;28;20986;-74
2023/09/07 03:49:35;;;;;;;9.80;3.30;;;14.80;1.00;;;;;;5014327;28;20506;-74
2023/09/07 03:52:01;;;;;;;8.40;3.67;;;14.80;1.00;;;;;;5029443;28;20877;-73
2023/09/07 03:54:26;;;;;;;8.52;3.70;;;14.80;1.00;;;;;;5026723;28;20456;-73
2023/09/07 03:56:53;;;;;;;7.33;3.03;;;14.70;1.00;;;;;;5028062;28;20406;-73
2023/09/07 03:59:19;;;;;;;9.90;3.90;;;14.70;1.00;;;;;;5028072;28;20472;-75
2023/09/07 04:01:44;;;;;;;8.95;3.72;;;14.70;1.00;;;;;;5027206;28;20419;-75
2023/09/07 04:04:09;;;;;;;10.20;4.03;;;14.70;1.00;;;;;;5027838;28;20399;-73
2023/09/07 04:06:35;;;;;;;9.80;3.80;;;14.70;1.00;;;;;;5027603;28;20391;-74
2023/09/07 04:09:00;;;;;;;7.93;3.47;;;14.80;1.00;;;;;;5028105;28;20477;-73
2023/09/07 04:11:26;;;;;;;9.60;3.60;;;14.80;1.00;;;;;;5026888;28;20969;-73
2023/09/07 04:13:51;;;;;;;10.27;4.03;;;14.90;1.00;;;;;;5028753;28;20444;-73
2023/09/07 04:16:17;;;;;;;8.97;4.03;;;15.00;1.00;;;;;;5031895;28;20422;-73
2023/09/07 04:18:44;;;;;;;10.38;4.47;;;15.00;1.00;;;;;;5029417;28;20399;-73
2023/09/07 04:21:10;;;;;;;9.82;3.95;;;15.00;1.00;;;;;;5010616;28;20427;-73
2023/09/07 04:23:35;;;;;;;10.70;4.40;;;15.10;1.00;;;;;;5026983;28;20920;-73
2023/09/07 04:26:08;;;;;;;10.57;4.50;;;15.10;1.00;;;;;;5027020;28;20482;-73
2023/09/07 04:28:33;;;;;;;9.95;4.30;;;15.00;1.00;;;;;;5026280;28;20429;-73
2023/09/07 04:30:59;;;;;;;9.63;4.03;;;15.00;1.00;;;;;;5024983;28;20407;-73
2023/09/07 04:33:25;;;;;;;10.73;4.37;;;15.00;1.00;;;;;;5027636;28;20427;-73
2023/09/07 04:39:03;;;;;;;12.90;4.80;;;14.90;1.00;;;;;;5042263;22;21626;-78
2023/09/07 04:41:29;;;;;;;9.13;4.03;;;14.80;1.00;;;;;;5028168;28;20522;-75
2023/09/07 04:43:54;;;;;;;11.03;3.87;;;14.80;1.00;;;;;;5028469;28;20411;-75
2023/09/07 04:46:21;;;;;;;9.90;4.35;;;14.70;1.00;;;;;;5029651;28;20872;-75
2023/09/07 04:48:47;;;;;;;10.68;4.25;;;14.70;1.00;;;;;;5011637;28;20421;-75
2023/09/07 04:51:12;;;;;;;8.40;4.07;;;14.70;1.00;;;;;;5009131;28;20397;-75
2023/09/07 04:53:38;;;;;;;10.20;4.70;;;14.70;1.00;;;;;;5011246;28;20395;-75
2023/09/07 04:56:06;;;;;;;9.05;4.15;;;14.70;1.00;;;;;;5022184;28;20493;-75
2023/09/07 04:58:32;;;;;;;14.32;4.55;;;14.70;1.00;;;;;;5017697;28;20407;-74
2023/09/07 05:01:08;;;;;;;11.95;4.22;;;14.70;1.00;;;;;;5026874;28;20447;-75
2023/09/07 05:03:34;;;;;;;8.97;3.73;;;14.80;1.00;;;;;;5026331;28;20913;-74
2023/09/07 05:06:00;;;;;;;9.63;4.20;;;14.80;1.00;;;;;;5022926;28;20498;-74
2023/09/07 05:08:26;;;;;;;12.00;4.40;;;14.80;1.00;;;;;;5019714;28;20422;-75
2023/09/07 05:11:00;;;;;;;12.57;5.03;;;14.70;1.00;;;;;;5027551;28;20492;-74
2023/09/07 05:13:26;;;;;;;9.57;4.40;;;14.80;1.00;;;;;;5027786;28;20418;-75
2023/09/07 05:15:53;;;;;;;8.27;4.30;;;14.80;1.00;;;;;;5022039;28;20882;-74
2023/09/07 05:18:19;;;;;;;12.50;5.28;;;14.90;1.00;;;;;;5021377;28;20458;-75
2023/09/07 05:20:45;;;;;;;14.93;4.88;;;15.00;1.00;;;;;;5026135;28;20929;-75
2023/09/07 05:23:15;;;;;;;9.82;4.30;;;15.10;1.00;;;;;;5021176;28;20414;-76
2023/09/07 05:26:07;;;;;;;11.70;4.87;;;15.20;1.00;;;;;;5019068;28;21004;-74
2023/09/07 05:28:33;;;;;;;12.00;4.82;;;15.30;1.00;;;;;;5019979;28;20505;-74
2023/09/07 05:30:58;;;;;;;8.90;3.97;;;15.50;1.00;;;;;;4997324;28;20448;-74
2023/09/07 05:33:24;;;;;;;10.77;4.77;;;15.60;1.00;;;;;;5009053;28;20492;-74
2023/09/07 05:35:49;;;;;;;10.73;5.53;;;15.70;1.00;;;;;;5016172;28;20402;-74
2023/09/07 05:38:15;;;;;;;10.57;5.05;;;15.70;1.00;;;;;;5031675;28;20761;-74
2023/09/07 05:40:43;;;;;;;12.90;5.07;;;15.70;1.00;;;;;;5036255;28;20421;-74
2023/09/07 05:43:10;;;;;;;9.95;4.72;;;15.80;1.00;;;;;;5050837;28;20910;-74
2023/09/07 05:45:39;;;;;;;10.73;4.38;;;15.80;1.00;;;;;;5050409;28;20504;-74
2023/09/07 05:48:05;;;;;;;9.50;4.20;;;15.90;1.00;;;;;;5047989;28;20469;-74
2023/09/07 05:50:33;;;;;;;9.90;4.80;;;16.10;1.00;;;;;;5050301;28;20417;-74
2023/09/07 05:52:59;;;;;;;11.93;4.55;;;16.20;1.00;;;;;;5051124;28;20748;-72
2023/09/07 05:55:24;;;;;;;10.03;4.60;;;16.30;1.00;;;;;;5051453;28;20405;-72
2023/09/07 05:57:50;;;;;;;11.88;4.70;;;16.50;1.00;;;;;;5048212;28;20446;-71
2023/09/07 06:00:16;;;;;;;11.65;5.40;;;16.70;1.00;;;;;;5050526;28;20492;-72
2023/09/07 06:02:43;;;;;;;11.88;5.47;;;16.70;1.00;;;;;;5050795;28;20401;-71
2023/09/07 06:05:09;;;;;;;11.55;5.53;;;16.90;1.00;;;;;;5043460;28;20397;-72
2023/09/07 06:07:35;;;;;;;14.70;5.47;;;17.30;1.00;;;;;;5051873;28;20495;-71
2023/09/07 06:10:01;;;;;;;10.00;4.78;;;18.50;1.00;;;;;;5051914;28;20396;-72
2023/09/07 06:12:26;;;;;;;13.10;4.93;;;20.20;1.00;;;;;;5032078;28;20470;-72
2023/09/07 06:14:52;;;;;;;9.10;4.23;;;21.90;1.00;;;;;;5046220;28;20408;-72
2023/09/07 06:17:17;;;;;;;12.70;4.67;;;22.80;99.90;;;;;;5051705;28;20388;-72
2023/09/07 06:19:43;;;;;;;9.40;4.30;;;23.80;23.10;;;;;;5044205;28;20788;-73
2023/09/07 06:22:08;;;;;;;12.10;5.50;;;25.00;1.00;;;;;;5054701;28;20400;-75
2023/09/07 06:24:34;;;;;;;10.97;4.43;;;26.40;99.90;;;;;;5071015;28;20493;-73
2023/09/07 06:27:00;;;;;;;9.32;4.20;;;27.60;99.90;;;;;;5050358;28;20496;-73
2023/09/07 06:29:25;;;;;;;9.73;4.15;;;28.50;99.90;;;;;;5048256;28;20420;-73
2023/09/07 06:31:52;;;;;;;10.57;4.50;;;28.80;99.90;;;;;;5050271;28;20480;-73
2023/09/07 06:34:17;;;;;;;9.77;4.10;;;28.90;99.90;;;;;;5051046;28;20476;-73
2023/09/07 06:36:43;;;;;;;9.30;3.80;;;29.40;99.90;;;;;;5049649;28;20484;-73
2023/09/07 06:39:09;;;;;;;10.13;4.57;;;29.70;99.90;;;;;;5049834;28;20414;-73
2023/09/07 06:41:34;;;;;;;10.40;4.28;;;29.90;99.90;;;;;;5050166;28;20416;-73
2023/09/07 06:44:00;;;;;;;10.02;4.70;;;30.00;99.90;;;;;;5048094;28;20417;-73
2023/09/07 06:46:25;;;;;;;9.63;4.13;;;30.40;99.90;;;;;;5049779;28;20397;-73
2023/09/07 06:48:51;;;;;;;10.07;4.30;;;31.40;99.90;;;;;;5049233;28;20421;-73
2023/09/07 06:51:16;;;;;;;9.07;4.22;;;31.50;99.90;;;;;;5050345;28;20402;-73
2023/09/07 06:53:42;;;;;;;9.30;3.80;;;31.70;99.90;;;;;;5049997;28;20598;-73
2023/09/07 06:56:07;;;;;;;9.00;4.10;;;31.60;99.90;;;;;;5043880;28;20413;-73
2023/09/07 06:58:34;;;;;;;9.00;3.97;;;31.70;99.90;;;;;;5049758;28;20401;-73
2023/09/07 07:01:00;;;;;;;9.63;3.60;;;31.70;99.90;;;;;;5043599;28;20900;-73
2023/09/07 07:03:28;;;;;;;8.75;4.03;;;31.40;99.90;;;;;;5046471;28;20407;-73
2023/09/07 07:05:54;;;;;;;8.63;3.50;;;31.20;99.90;;;;;;5048033;28;20795;-73
2023/09/07 07:08:19;;;;;;;9.57;4.47;;;31.60;99.90;;;;;;5050489;28;20416;-73
2023/09/07 07:10:45;;;;;;;8.33;3.40;;;31.90;99.90;;;;;;5048641;28;20470;-73
2023/09/07 07:13:11;;;;;;;11.23;3.90;;;31.20;99.90;;;;;;5052647;28;20757;-73
2023/09/07 07:15:36;;;;;;;9.33;3.40;;;31.20;99.90;;;;;;5065616;28;20397;-73
2023/09/07 07:18:08;;;;;;;10.13;3.40;;;31.70;99.90;;;;;;5030204;28;20399;-73
2023/09/07 07:20:34;;;;;;;8.13;3.87;;;31.80;99.90;;;;;;5047206;28;20729;-73
2023/09/07 07:23:00;;;;;;;8.63;2.90;;;31.70;99.90;;;;;;5049150;28;20908;-73
2023/09/07 07:25:25;;;;;;;9.70;3.33;;;32.30;99.90;;;;;;5048356;28;20443;-73
2023/09/07 07:27:50;;;;;;;8.30;3.43;;;32.90;99.90;;;;;;5048359;28;20478;-74
2023/09/07 07:30:16;;;;;;;8.60;3.50;;;32.80;99.90;;;;;;5051286;28;20475;-73
2023/09/07 07:32:42;;;;;;;8.60;3.70;;;33.20;99.90;;;;;;5059122;28;20412;-73
2023/09/07 07:35:08;;;;;;;8.90;3.40;;;33.70;99.90;;;;;;5054009;28;20393;-73
2023/09/07 07:37:33;;;;;;;8.90;3.47;;;33.70;99.90;;;;;;5049220;28;20768;-73
2023/09/07 07:39:58;;;;;;;7.97;3.65;;;33.10;99.90;;;;;;5048555;28;20413;-74
2023/09/07 07:42:24;;;;;;;8.27;3.43;;;32.90;99.90;;;;;;5023438;28;20477;-73
2023/09/07 07:44:49;;;;;;;7.60;3.22;;;33.20;99.90;;;;;;5050286;28;20459;-73
2023/09/07 07:47:15;;;;;;;7.83;3.20;;;33.30;99.90;;;;;;5029727;28;20787;-73
2023/09/07 07:49:40;;;;;;;7.23;2.93;;;33.10;99.90;;;;;;5038780;28;20409;-73
2023/09/07 07:52:06;;;;;;;7.72;3.28;;;33.60;99.90;;;;;;5049004;28;20385;-73
2023/09/07 07:54:33;;;;;;;8.30;3.80;;;33.80;99.90;;;;;;5048535;28;20484;-73
2023/09/07 07:56:59;;;;;;;8.30;3.60;;;34.40;99.90;;;;;;5048833;28;20465;-73
2023/09/07 07:59:25;;;;;;;9.07;3.57;;;34.70;99.90;;;;;;5029819;28;20400;-73
2023/09/07 08:01:50;;;;;;;8.35;3.55;;;34.00;99.90;;;;;;5041636;28;20746;-73
2023/09/07 08:04:16;;;;;;;8.02;3.65;;;34.20;99.90;;;;;;5044060;28;20426;-73
2023/09/07 08:06:41;;;;;;;7.50;3.13;;;34.10;99.90;;;;;;5043383;28;20410;-73
2023/09/07 08:09:08;;;;;;;8.00;3.40;;;34.60;99.90;;;;;;5046371;28;20448;-73
2023/09/07 08:11:33;;;;;;;8.03;3.60;;;34.90;99.90;;;;;;5048957;28;20413;-73
2023/09/07 08:13:59;;;;;;;9.90;3.40;;;35.20;99.90;;;;;;5048988;28;20761;-73
2023/09/07 08:16:25;;;;;;;8.35;3.47;;;35.20;99.90;;;;;;5049171;28;20393;-73
2023/09/07 08:18:50;;;;;;;7.72;3.50;;;35.60;99.90;;;;;;5049146;28;20417;-73
2023/09/07 08:21:16;;;;;;;8.60;3.57;;;35.70;99.90;;;;;;5049206;28;21294;-73
2023/09/07 08:23:41;;;;;;;8.82;3.88;;;35.20;99.90;;;;;;5048887;28;20380;-73
2023/09/07 08:26:09;;;;;;;8.10;3.50;;;36.20;99.90;;;;;;5048739;28;20390;-73
2023/09/07 08:28:34;;;;;;;9.15;4.25;;;36.10;99.90;;;;;;5048760;28;20413;-74
2023/09/07 08:31:00;;;;;;;8.73;3.80;;;36.60;99.90;;;;;;5048537;28;20860;-74
2023/09/07 08:33:29;;;;;;;9.60;4.53;;;37.10;99.90;;;;;;5048616;28;20392;-73
2023/09/07 08:35:56;;;;;;;9.73;3.88;;;37.40;99.90;;;;;;5023620;28;20804;-74
2023/09/07 08:38:25;;;;;;;9.50;4.23;;;37.20;99.90;;;;;;5047969;28;20450;-73
2023/09/07 08:40:54;;;;;;;10.60;4.60;;;36.20;99.90;;;;;;5043152;28;20554;-73
2023/09/07 08:43:20;;;;;;;9.80;4.28;;;36.60;99.90;;;;;;5048420;28;20409;-73
2023/09/07 08:45:51;;;;;;;10.40;4.73;;;37.10;99.90;;;;;;5048501;28;20492;-73
2023/09/07 08:48:19;;;;;;;9.10;4.20;;;36.20;99.90;;;;;;5048501;28;20417;-73
2023/09/07 08:50:49;;;;;;;8.23;4.10;;;36.70;99.90;;;;;;5048149;28;20406;-74
2023/09/07 08:53:18;;;;;;;8.80;3.90;;;37.20;99.90;;;;;;5047858;28;20409;-73
2023/09/07 08:55:43;;;;;;;11.20;4.00;;;36.70;99.90;;;;;;5048087;28;20433;-73
2023/09/07 08:58:09;;;;;;;8.73;4.80;;;36.40;99.90;;;;;;5047976;28;20494;-73
2023/09/07 09:00:36;;;;;;;9.20;4.50;;;35.50;99.90;;;;;;5046831;28;20421;-73
2023/09/07 09:03:03;;;;;;;9.50;4.22;;;35.70;99.90;;;;;;5048286;28;20884;-73
2023/09/07 09:05:30;;;;;;;9.70;3.90;;;36.60;99.90;;;;;;5046984;28;20409;-74
2023/09/07 09:08:04;;;;;;;8.77;4.35;;;36.90;99.90;;;;;;5047855;28;20563;-73
2023/09/07 09:10:29;;;;;;;10.00;4.13;;;36.80;99.90;;;;;;5050379;28;20453;-74
2023/09/07 09:12:55;;;;;;;8.63;4.00;;;36.30;99.90;;;;;;5041856;28;20794;-74
2023/09/07 09:15:21;;;;;;;8.90;4.50;;;37.00;99.90;;;;;;5056491;28;20412;-74
2023/09/07 09:17:47;;;;;;;8.65;4.13;;;37.20;99.90;;;;;;5051866;28;20744;-73
2023/09/07 09:20:24;;;;;;;8.23;3.92;;;37.10;99.90;;;;;;5050651;28;20497;-73
2023/09/07 09:22:54;;;;;;;8.98;4.18;;;36.80;99.90;;;;;;5051769;28;20804;-73
2023/09/07 09:25:20;;;;;;;9.00;4.30;;;36.20;99.90;;;;;;5052460;28;20486;-73
2023/09/07 09:27:46;;;;;;;8.30;3.90;;;36.80;99.90;;;;;;5050883;28;20425;-73
2023/09/07 09:30:15;;;;;;;9.23;4.18;;;37.20;99.90;;;;;;5040377;28;20413;-73
2023/09/07 09:32:41;;;;;;;8.70;3.90;;;38.40;99.90;;;;;;5051935;28;20575;-73
2023/09/07 09:35:07;;;;;;;9.13;4.13;;;38.00;99.90;;;;;;5051748;28;20500;-73
2023/09/07 09:37:33;;;;;;;8.07;4.03;;;38.20;99.90;;;;;;5051839;28;20389;-73
2023/09/07 09:40:01;;;;;;;8.52;4.40;;;38.00;99.90;;;;;;5048953;28;20712;-74
2023/09/07 09:42:27;;;;;;;10.15;4.30;;;38.10;99.90;;;;;;5051706;28;20395;-74
2023/09/07 09:44:54;;;;;;;9.07;4.00;;;37.90;99.90;;;;;;5046526;28;20496;-74
2023/09/07 09:47:21;;;;;;;7.63;3.90;;;37.60;99.90;;;;;;5043542;28;20800;-74
2023/09/07 09:49:48;;;;;;;7.95;3.72;;;37.50;99.90;;;;;;5050579;28;20401;-74
2023/09/07 09:52:15;;;;;;;8.80;4.60;;;37.90;99.90;;;;;;5051801;28;20401;-73
2023/09/07 09:54:41;;;;;;;9.50;4.57;;;38.80;99.90;;;;;;5051546;28;20904;-74
2023/09/07 09:57:07;;;;;;;8.52;4.10;;;37.80;99.90;;;;;;5050049;28;20492;-74
2023/09/07 09:59:33;;;;;;;8.57;3.97;;;37.40;99.90;;;;;;5049868;28;20559;-74
2023/09/07 10:02:01;;;;;;;8.20;3.80;;;37.90;99.90;;;;;;5050908;28;20390;-73
2023/09/07 10:04:29;;;;;;;8.15;4.05;;;38.10;99.90;;;;;;5050708;28;20401;-74
2023/09/07 10:06:57;;;;;;;8.73;4.00;;;37.50;99.90;;;;;;5050470;28;20722;-73
2023/09/07 10:09:23;;;;;;;8.13;4.25;;;37.40;99.90;;;;;;5043142;28;20462;-74
2023/09/07 10:11:53;;;;;;;8.30;4.20;;;38.00;99.90;;;;;;5048910;28;20444;-74
2023/09/07 10:14:19;;;;;;;8.25;4.25;;;38.00;99.90;;;;;;5055391;28;20507;-74
2023/09/07 10:16:50;;;;;;;8.60;3.87;;;38.10;99.90;;;;;;5050816;28;20484;-74
2023/09/07 10:19:20;;;;;;;7.63;3.72;;;37.70;99.90;;;;;;5037315;28;20446;-74
2023/09/07 10:21:46;;;;;;;9.00;4.20;;;37.80;99.90;;;;;;5035254;28;20430;-74
2023/09/07 10:24:12;;;;;;;10.60;4.40;;;37.60;99.90;;;;;;5014059;28;20496;-74
2023/09/07 10:26:37;;;;;;;8.57;3.80;;;38.10;99.90;;;;;;5030943;28;20622;-74
2023/09/07 10:29:05;;;;;;;8.13;3.70;;;37.80;99.90;;;;;;5040740;28;20425;-74
2023/09/07 10:31:31;;;;;;;8.85;4.00;;;37.50;99.90;;;;;;5039224;28;20397;-74
2023/09/07 10:34:12;;;;;;;8.32;3.67;;;37.40;99.90;;;;;;5023016;28;20450;-74
2023/09/07 10:36:37;;;;;;;9.50;4.35;;;37.50;99.90;;;;;;5030784;28;20445;-74
2023/09/07 10:39:05;;;;;;;7.97;3.42;;;36.80;99.90;;;;;;5041136;28;20480;-74
2023/09/07 10:41:43;;;;;;;9.60;4.40;;;36.00;99.90;;;;;;5034725;28;20403;-74
2023/09/07 10:44:13;;;;;;;7.85;3.90;;;35.50;99.90;;;;;;5033805;28;20386;-74
2023/09/07 10:46:39;;;;;;;10.18;4.45;;;34.80;99.90;;;;;;5050737;28;20481;-74
2023/09/07 10:49:11;;;;;;;8.82;4.00;;;34.70;99.90;;;;;;5050386;28;20417;-74
2023/09/07 10:51:46;;;;;;;9.07;3.63;;;34.60;99.90;;;;;;5042266;28;20973;-74
2023/09/07 10:54:23;;;;;;;9.00;4.10;;;34.10;99.90;;;;;;5050758;28;20404;-74
2023/09/07 10:56:49;;;;;;;9.38;4.28;;;34.20;99.90;;;;;;5036280;28;20517;-74
2023/09/07 10:59:16;;;;;;;8.83;3.80;;;34.40;99.90;;;;;;5041399;28;20399;-74
2023/09/07 11:01:43;;;;;;;7.50;3.50;;;34.50;99.90;;;;;;5045834;28;20898;-74
2023/09/07 11:04:11;;;;;;;8.20;3.42;;;35.20;99.90;;;;;;5050199;28;20833;-76
2023/09/07 11:06:37;;;;;;;8.70;4.00;;;35.90;99.90;;;;;;5050432;28;20476;-74
2023/09/07 11:09:10;;;;;;;9.15;3.60;;;35.40;99.90;;;;;;5032021;28;20421;-75
2023/09/07 11:11:38;;;;;;;10.00;4.20;;;35.40;99.90;;;;;;5049424;28;20393;-75
2023/09/07 11:14:04;;;;;;;8.90;3.60;;;36.00;99.90;;;;;;5055992;28;20408;-73
2023/09/07 11:16:30;;;;;;;8.80;4.18;;;36.10;99.90;;;;;;5045281;28;20441;-73
2023/09/07 11:18:56;;;;;;;9.10;3.97;;;35.80;99.90;;;;;;5049265;28;20408;-72
2023/09/07 11:21:22;;;;;;;9.30;4.38;;;35.60;99.90;;;;;;5049756;28;20397;-74
2023/09/07 11:23:49;;;;;;;8.20;3.47;;;35.20;99.90;;;;;;5050538;28;20401;-75
2023/09/07 11:26:17;;;;;;;8.65;3.70;;;34.50;99.90;;;;;;5047791;28;20413;-75
2023/09/07 11:28:46;;;;;;;8.50;3.70;;;33.80;99.90;;;;;;5046664;28;20939;-74
2023/09/07 11:31:11;;;;;;;8.43;3.90;;;33.20;99.90;;;;;;5046427;28;20393;-74
2023/09/07 11:33:38;;;;;;;8.17;3.97;;;32.60;99.90;;;;;;5051417;28;20402;-74
2023/09/07 11:36:04;;;;;;;9.63;3.80;;;32.60;99.90;;;;;;5049992;28;20465;-74
2023/09/07 11:38:35;;;;;;;9.07;3.90;;;32.40;99.90;;;;;;5052925;28;20440;-74
2023/09/07 11:41:01;;;;;;;8.85;3.67;;;32.40;99.90;;;;;;5049291;28;20413;-72
2023/09/07 11:43:26;;;;;;;8.55;3.33;;;32.10;99.90;;;;;;5049014;28;20387;-72
2023/09/07 11:45:52;;;;;;;8.60;4.13;;;32.00;99.90;;;;;;5049244;28;20397;-73
2023/09/07 11:48:17;;;;;;;7.43;3.40;;;31.80;99.90;;;;;;5029630;28;20464;-72
2023/09/07 11:50:43;;;;;;;7.90;3.80;;;31.70;99.90;;;;;;5029421;28;20735;-74
2023/09/07 11:53:09;;;;;;;8.75;3.92;;;32.00;99.90;;;;;;5011650;28;20410;-74
2023/09/07 11:55:35;;;;;;;8.75;3.80;;;32.00;99.90;;;;;;5029138;28;20394;-72
2023/09/07 11:58:07;;;;;;;7.33;3.20;;;31.80;99.90;;;;;;5047598;28;20808;-72
2023/09/07 12:00:33;;;;;;;8.73;4.18;;;31.80;99.90;;;;;;5050609;28;20389;-72
2023/09/07 12:02:58;;;;;;;8.80;3.67;;;31.70;99.90;;;;;;5047671;28;20377;-72
2023/09/07 12:05:26;;;;;;;7.90;3.80;;;31.70;99.90;;;;;;5048714;28;20404;-72
2023/09/07 12:07:51;;;;;;;8.23;3.60;;;31.70;99.90;;;;;;5048940;28;20904;-73
2023/09/07 12:10:17;;;;;;;7.70;3.70;;;31.80;99.90;;;;;;5049318;28;20481;-73
2023/09/07 12:12:43;;;;;;;9.03;3.70;;;31.80;99.90;;;;;;5048801;28;20480;-73
2023/09/07 12:15:13;;;;;;;9.82;4.20;;;32.00;99.90;;;;;;5048463;28;20424;-72
2023/09/07 12:17:38;;;;;;;7.47;3.17;;;32.00;99.90;;;;;;5047305;28;20470;-72
2023/09/07 12:20:09;;;;;;;8.32;3.45;;;31.80;99.90;;;;;;5047615;28;20868;-73
2023/09/07 12:22:37;;;;;;;9.20;3.40;;;31.60;99.90;;;;;;5043440;28;20442;-73
2023/09/07 12:25:06;;;;;;;11.30;4.00;;;31.70;99.90;;;;;;5048542;28;20382;-73
2023/09/07 12:27:33;;;;;;;9.82;4.82;;;31.90;99.90;;;;;;5048661;28;20405;-73
2023/09/07 12:29:59;;;;;;;8.88;3.58;;;31.90;99.90;;;;;;5047277;28;20693;-74
2023/09/07 12:32:24;;;;;;;9.03;3.70;;;31.90;99.90;;;;;;5066036;28;20390;-74
2023/09/07 12:34:53;;;;;;;8.60;3.80;;;32.00;99.90;;;;;;5013712;28;20400;-74
2023/09/07 12:37:19;;;;;;;8.20;4.00;;;32.00;99.90;;;;;;5033037;28;20397;-74
2023/09/07 12:39:44;;;;;;;8.35;3.92;;;31.90;99.90;;;;;;5047940;28;20413;-74
2023/09/07 12:42:10;;;;;;;9.10;3.80;;;32.00;99.90;;;;;;5048844;28;20508;-74
2023/09/07 12:44:36;;;;;;;8.57;3.70;;;32.00;99.90;;;;;;5049819;28;20392;-74
2023/09/07 12:47:01;;;;;;;7.67;3.33;;;31.80;99.90;;;;;;5052642;28;20447;-74